createdAt,value
2016-08-17T00:00:43.338Z,-81
2016-08-17T00:01:43.262Z,-81
2016-08-17T00:02:43.230Z,-81
2016-08-17T00:03:43.286Z,-81
2016-08-17T00:04:43.224Z,-82
2016-08-17T00:05:43.180Z,-81
2016-08-17T00:06:43.356Z,-81
2016-08-17T00:07:43.201Z,-81
2016-08-17T00:08:43.202Z,-81
2016-08-17T00:09:43.359Z,-81
2016-08-17T00:10:43.285Z,-82
2016-08-17T00:11:43.143Z,-81
2016-08-17T00:12:43.133Z,-81
2016-08-17T00:13:43.154Z,-81
2016-08-17T00:14:43.167Z,-81
2016-08-17T00:15:43.329Z,-81
2016-08-17T00:16:43.429Z,-81
2016-08-17T00:17:43.354Z,-81
2016-08-17T00:18:43.203Z,-81
2016-08-17T00:19:43.185Z,-81
2016-08-17T00:20:43.271Z,-81
2016-08-17T00:21:43.710Z,-81
2016-08-17T00:22:43.287Z,-82
2016-08-17T00:23:43.178Z,-81
2016-08-17T00:24:43.361Z,-81
2016-08-17T00:25:43.251Z,-81
2016-08-17T00:26:43.324Z,-81
2016-08-17T00:27:43.259Z,-81
2016-08-17T00:28:43.202Z,-81
2016-08-17T00:29:43.379Z,-81
2016-08-17T00:30:43.200Z,-81
2016-08-17T00:31:43.412Z,-81
2016-08-17T00:32:43.135Z,-81
2016-08-17T00:33:43.254Z,-81
2016-08-17T00:34:43.403Z,-81
2016-08-17T00:35:43.201Z,-81
2016-08-17T00:36:43.410Z,-80
2016-08-17T00:37:43.263Z,-80
2016-08-17T00:38:43.138Z,-81
2016-08-17T00:39:43.396Z,-80
2016-08-17T00:40:43.310Z,-81
2016-08-17T00:41:43.412Z,-80
2016-08-17T00:42:43.185Z,-81
2016-08-17T00:43:43.278Z,-80
2016-08-17T00:44:43.310Z,-81
2016-08-17T00:45:43.269Z,-81
2016-08-17T00:46:43.412Z,-81
2016-08-17T00:47:43.434Z,-81
2016-08-17T00:48:43.273Z,-82
2016-08-17T00:49:43.378Z,-80
2016-08-17T00:50:43.380Z,-80
2016-08-17T00:51:43.261Z,-81
2016-08-17T00:52:43.452Z,-81
2016-08-17T00:53:43.314Z,-81
2016-08-17T00:54:43.460Z,-81
2016-08-17T00:55:43.432Z,-81
2016-08-17T00:56:43.332Z,-81
2016-08-17T00:57:43.266Z,-81
2016-08-17T00:58:43.278Z,-81
2016-08-17T00:59:43.380Z,-81
2016-08-17T01:00:43.287Z,-81
2016-08-17T01:01:43.319Z,-80
2016-08-17T01:02:43.505Z,-81
2016-08-17T01:03:43.546Z,-80
2016-08-17T01:04:43.336Z,-81
2016-08-17T01:05:43.476Z,-81
2016-08-17T01:06:43.380Z,-81
2016-08-17T01:07:43.362Z,-81
2016-08-17T01:08:43.431Z,-80
2016-08-17T01:09:43.716Z,-81
2016-08-17T01:10:43.352Z,-81
2016-08-17T01:11:43.394Z,-81
2016-08-17T01:12:43.436Z,-81
2016-08-17T01:13:43.335Z,-81
2016-08-17T01:14:43.514Z,-81
2016-08-17T01:15:43.419Z,-81
2016-08-17T01:16:43.342Z,-81
2016-08-17T01:17:43.324Z,-81
2016-08-17T01:18:43.476Z,-81
2016-08-17T01:19:43.498Z,-81
2016-08-17T01:20:43.549Z,-81
2016-08-17T01:21:43.443Z,-81
2016-08-17T01:22:43.463Z,-81
2016-08-17T01:23:43.420Z,-81
2016-08-17T01:24:43.428Z,-81
2016-08-17T01:25:43.300Z,-80
2016-08-17T01:26:43.435Z,-81
2016-08-17T01:27:43.401Z,-81
2016-08-17T01:28:43.343Z,-80
2016-08-17T01:29:43.413Z,-81
2016-08-17T01:30:43.317Z,-80
2016-08-17T01:31:43.465Z,-81
2016-08-17T01:32:43.389Z,-80
2016-08-17T01:33:43.400Z,-80
2016-08-17T01:34:43.457Z,-81
2016-08-17T01:35:43.426Z,-80
2016-08-17T01:36:43.371Z,-80
2016-08-17T01:37:43.514Z,-81
2016-08-17T01:38:43.569Z,-81
2016-08-17T01:39:43.516Z,-81
2016-08-17T01:40:43.498Z,-81
2016-08-17T01:41:43.631Z,-81
2016-08-17T01:42:43.350Z,-81
2016-08-17T01:43:43.423Z,-80
2016-08-17T01:44:43.513Z,-81
2016-08-17T01:45:43.534Z,-80
2016-08-17T01:46:43.509Z,-81
2016-08-17T01:47:43.546Z,-81
2016-08-17T01:48:43.437Z,-80
2016-08-17T01:49:43.646Z,-81
2016-08-17T01:50:43.356Z,-80
2016-08-17T01:51:43.726Z,-81
2016-08-17T01:52:43.512Z,-81
2016-08-17T01:53:43.422Z,-80
2016-08-17T01:54:43.581Z,-81
2016-08-17T01:55:43.605Z,-80
2016-08-17T02:08:44.661Z,-80
2016-08-17T02:08:51.672Z,-81
2016-08-17T02:09:51.705Z,-81
2016-08-17T02:10:51.825Z,-80
2016-08-17T02:11:51.667Z,-81
2016-08-17T02:12:51.552Z,-81
2016-08-17T02:13:51.643Z,-81
2016-08-17T02:14:51.653Z,-80
2016-08-17T02:15:51.731Z,-81
2016-08-17T02:16:51.646Z,-81
2016-08-17T02:17:51.680Z,-81
2016-08-17T02:18:51.677Z,-80
2016-08-17T02:19:51.703Z,-81
2016-08-17T02:20:51.871Z,-80
2016-08-17T02:21:51.760Z,-81
2016-08-17T02:22:51.775Z,-81
2016-08-17T02:23:51.794Z,-81
2016-08-17T02:24:51.773Z,-81
2016-08-17T02:25:51.800Z,-80
2016-08-17T02:26:51.676Z,-81
2016-08-17T02:27:51.571Z,-81
2016-08-17T02:28:51.661Z,-81
2016-08-17T02:29:51.640Z,-81
2016-08-17T02:30:51.777Z,-81
2016-08-17T02:31:51.656Z,-80
2016-08-17T02:32:51.800Z,-80
2016-08-17T02:33:51.809Z,-79
2016-08-17T02:34:51.662Z,-80
2016-08-17T02:35:51.828Z,-80
2016-08-17T02:36:51.656Z,-80
2016-08-17T02:37:51.923Z,-81
2016-08-17T02:38:51.763Z,-80
2016-08-17T02:39:51.674Z,-81
2016-08-17T02:40:51.800Z,-81
2016-08-17T02:41:51.647Z,-81
2016-08-17T02:42:51.874Z,-81
2016-08-17T02:43:51.850Z,-80
2016-08-17T02:44:51.805Z,-81
2016-08-17T02:45:51.884Z,-81
2016-08-17T02:46:51.754Z,-81
2016-08-17T02:47:51.841Z,-81
2016-08-17T02:48:51.818Z,-80
2016-08-17T02:49:51.792Z,-81
2016-08-17T02:50:51.731Z,-80
2016-08-17T02:51:51.733Z,-80
2016-08-17T02:52:51.696Z,-80
2016-08-17T02:53:51.664Z,-81
2016-08-17T02:54:52.012Z,-81
2016-08-17T02:55:51.724Z,-80
2016-08-17T02:56:51.759Z,-80
2016-08-17T02:57:51.795Z,-80
2016-08-17T02:58:51.856Z,-80
2016-08-17T02:59:51.714Z,-81
2016-08-17T03:00:51.838Z,-80
2016-08-17T03:01:51.873Z,-80
2016-08-17T03:02:51.879Z,-80
2016-08-17T03:03:51.712Z,-80
2016-08-17T03:04:51.820Z,-81
2016-08-17T03:05:51.787Z,-80
2016-08-17T03:06:51.836Z,-81
2016-08-17T03:07:51.821Z,-81
2016-08-17T03:08:51.819Z,-80
2016-08-17T03:09:51.728Z,-81
2016-08-17T03:10:51.854Z,-81
2016-08-17T03:11:51.912Z,-81
2016-08-17T03:12:51.921Z,-80
2016-08-17T03:13:52.035Z,-81
2016-08-17T03:14:51.951Z,-80
2016-08-17T03:15:51.922Z,-80
2016-08-17T03:16:51.926Z,-80
2016-08-17T03:17:51.855Z,-81
2016-08-17T03:18:51.893Z,-80
2016-08-17T03:19:52.244Z,-81
2016-08-17T03:20:51.898Z,-80
2016-08-17T03:21:51.849Z,-80
2016-08-17T03:22:51.703Z,-81
2016-08-17T03:23:51.915Z,-81
2016-08-17T03:24:52.027Z,-80
2016-08-17T03:25:52.042Z,-80
2016-08-17T03:26:51.976Z,-81
2016-08-17T03:27:51.904Z,-81
2016-08-17T03:28:51.874Z,-80
2016-08-17T03:29:51.807Z,-81
2016-08-17T03:30:51.948Z,-81
2016-08-17T03:31:51.999Z,-80
2016-08-17T03:32:51.917Z,-80
2016-08-17T03:33:51.821Z,-80
2016-08-17T03:34:51.897Z,-81
2016-08-17T03:35:51.873Z,-80
2016-08-17T03:36:52.061Z,-81
2016-08-17T03:37:51.937Z,-80
2016-08-17T03:38:51.883Z,-81
2016-08-17T03:39:51.784Z,-81
2016-08-17T03:40:51.935Z,-81
2016-08-17T03:41:51.784Z,-80
2016-08-17T03:42:51.897Z,-81
2016-08-17T03:43:52.020Z,-81
2016-08-17T03:44:52.004Z,-81
2016-08-17T03:45:51.898Z,-81
2016-08-17T03:46:51.806Z,-80
2016-08-17T03:47:51.858Z,-80
2016-08-17T03:48:51.906Z,-80
2016-08-17T03:49:52.047Z,-80
2016-08-17T03:50:51.865Z,-81
2016-08-17T03:51:52.018Z,-81
2016-08-17T03:52:51.954Z,-80
2016-08-17T03:53:51.989Z,-80
2016-08-17T03:54:51.969Z,-80
2016-08-17T03:55:52.026Z,-80
2016-08-17T03:56:52.114Z,-80
2016-08-17T03:57:51.825Z,-81
2016-08-17T03:58:51.990Z,-81
2016-08-17T03:59:51.879Z,-80
2016-08-17T04:00:52.017Z,-81
2016-08-17T04:01:52.101Z,-81
2016-08-17T04:02:51.892Z,-80
2016-08-17T04:03:51.991Z,-80
2016-08-17T04:04:52.136Z,-80
2016-08-17T04:05:51.988Z,-81
2016-08-17T04:06:51.967Z,-80
2016-08-17T04:07:52.106Z,-80
2016-08-17T04:08:52.044Z,-80
2016-08-17T04:09:52.080Z,-80
2016-08-17T04:10:52.056Z,-80
2016-08-17T04:11:52.056Z,-80
2016-08-17T04:12:51.973Z,-81
2016-08-17T04:13:52.014Z,-81
2016-08-17T04:14:52.008Z,-80
2016-08-17T04:15:52.138Z,-81
2016-08-17T04:16:52.085Z,-80
2016-08-17T04:17:52.095Z,-81
2016-08-17T04:18:52.019Z,-80
2016-08-17T04:19:52.046Z,-80
2016-08-17T04:20:52.057Z,-81
2016-08-17T04:21:52.041Z,-80
2016-08-17T04:22:51.948Z,-80
2016-08-17T04:23:52.178Z,-81
2016-08-17T04:24:52.239Z,-80
2016-08-17T04:25:52.075Z,-80
2016-08-17T04:26:52.143Z,-80
2016-08-17T04:27:52.037Z,-80
2016-08-17T04:28:52.046Z,-81
2016-08-17T04:29:52.097Z,-81
2016-08-17T04:30:51.990Z,-81
2016-08-17T04:31:52.155Z,-80
2016-08-17T04:32:52.018Z,-80
2016-08-17T04:33:52.082Z,-81
2016-08-17T04:34:52.034Z,-81
2016-08-17T04:35:52.270Z,-80
2016-08-17T04:36:52.172Z,-81
2016-08-17T04:37:52.070Z,-80
2016-08-17T04:38:51.972Z,-81
2016-08-17T04:39:51.959Z,-80
2016-08-17T04:40:52.509Z,-81
2016-08-17T04:41:52.122Z,-80
2016-08-17T04:42:52.127Z,-80
2016-08-17T04:43:52.070Z,-80
2016-08-17T04:44:51.962Z,-80
2016-08-17T04:45:52.107Z,-80
2016-08-17T04:46:52.293Z,-81
2016-08-17T04:47:52.155Z,-81
2016-08-17T04:48:52.060Z,-80
2016-08-17T04:49:52.167Z,-81
2016-08-17T04:50:52.199Z,-80
2016-08-17T04:51:52.304Z,-90
2016-08-17T04:52:52.234Z,-87
2016-08-17T04:53:52.226Z,-88
2016-08-17T04:54:52.220Z,-87
2016-08-17T04:55:52.271Z,-88
2016-08-17T04:56:52.210Z,-87
2016-08-17T04:57:52.079Z,-86
2016-08-17T04:58:52.088Z,-87
2016-08-17T04:59:52.074Z,-87
2016-08-17T05:00:52.292Z,-87
2016-08-17T05:01:52.121Z,-88
2016-08-17T05:02:52.078Z,-87
2016-08-17T05:03:52.224Z,-87
2016-08-17T05:04:52.196Z,-88
2016-08-17T05:05:52.253Z,-86
2016-08-17T05:06:52.133Z,-88
2016-08-17T05:07:52.088Z,-86
2016-08-17T05:08:52.292Z,-87
2016-08-17T05:09:52.362Z,-88
2016-08-17T05:10:52.191Z,-87
2016-08-17T05:11:52.351Z,-86
2016-08-17T05:12:52.055Z,-88
2016-08-17T05:22:31.897Z,-86
2016-08-17T05:22:38.881Z,-87
2016-08-17T05:23:39.045Z,-88
2016-08-17T05:24:38.833Z,-87
2016-08-17T05:25:38.999Z,-87
2016-08-17T05:26:38.784Z,-86
2016-08-17T05:27:38.998Z,-86
2016-08-17T05:28:38.976Z,-86
2016-08-17T05:29:38.817Z,-87
2016-08-17T05:30:38.856Z,-87
2016-08-17T05:31:38.875Z,-87
2016-08-17T05:32:38.991Z,-87
2016-08-17T05:33:38.895Z,-86
2016-08-17T05:34:38.975Z,-87
2016-08-17T05:35:38.934Z,-86
2016-08-17T05:36:38.902Z,-87
2016-08-17T05:37:38.807Z,-87
2016-08-17T05:38:39.006Z,-86
2016-08-17T05:39:38.937Z,-87
2016-08-17T05:40:39.063Z,-86
2016-08-17T05:41:38.857Z,-86
2016-08-17T05:42:39.015Z,-86
2016-08-17T05:43:38.935Z,-86
2016-08-17T05:44:39.035Z,-86
2016-08-17T05:45:39.046Z,-86
2016-08-17T05:46:39.037Z,-86
2016-08-17T05:47:38.977Z,-87
2016-08-17T05:48:39.176Z,-86
2016-08-17T05:49:38.986Z,-87
2016-08-17T05:50:38.985Z,-87
2016-08-17T05:51:39.045Z,-87
2016-08-17T05:52:39.048Z,-87
2016-08-17T05:53:38.909Z,-86
2016-08-17T05:54:38.923Z,-87
2016-08-17T05:55:39.154Z,-85
2016-08-17T05:56:38.835Z,-86
2016-08-17T05:57:38.979Z,-86
2016-08-17T05:58:38.938Z,-87
2016-08-17T05:59:39.062Z,-86
2016-08-17T06:00:38.891Z,-87
2016-08-17T06:01:38.821Z,-87
2016-08-17T06:02:39.119Z,-87
2016-08-17T06:03:38.858Z,-87
2016-08-17T06:04:38.908Z,-86
2016-08-17T06:05:39.134Z,-88
2016-08-17T06:06:38.875Z,-87
2016-08-17T06:07:38.963Z,-86
2016-08-17T06:08:38.965Z,-87
2016-08-17T06:09:39.016Z,-87
2016-08-17T06:10:39.070Z,-86
2016-08-17T06:11:39.069Z,-87
2016-08-17T06:12:38.947Z,-87
2016-08-17T06:13:38.931Z,-86
2016-08-17T06:14:39.073Z,-87
2016-08-17T06:15:38.911Z,-87
2016-08-17T06:16:39.070Z,-87
2016-08-17T06:17:39.073Z,-86
2016-08-17T06:18:39.122Z,-87
2016-08-17T06:19:39.191Z,-88
2016-08-17T06:20:39.178Z,-87
2016-08-17T06:21:39.019Z,-88
2016-08-17T06:22:39.109Z,-88
2016-08-17T06:23:39.111Z,-88
2016-08-17T06:24:39.049Z,-87
2016-08-17T06:25:39.137Z,-88
2016-08-17T06:26:39.114Z,-88
2016-08-17T06:27:39.002Z,-87
2016-08-17T06:28:38.982Z,-87
2016-08-17T06:29:39.139Z,-88
2016-08-17T06:30:39.026Z,-87
2016-08-17T06:31:39.004Z,-88
2016-08-17T06:32:39.171Z,-87
2016-08-17T06:33:39.253Z,-88
2016-08-17T06:34:39.238Z,-88
2016-08-17T06:35:39.020Z,-88
2016-08-17T06:36:39.102Z,-88
2016-08-17T06:37:39.082Z,-88
2016-08-17T06:38:39.067Z,-88
2016-08-17T06:39:39.091Z,-87
2016-08-17T06:40:39.000Z,-88
2016-08-17T06:41:39.153Z,-88
2016-08-17T06:42:39.086Z,-87
2016-08-17T06:43:39.085Z,-88
2016-08-17T06:44:39.157Z,-87
2016-08-17T06:45:39.275Z,-87
2016-08-17T06:46:38.999Z,-87
2016-08-17T06:47:39.047Z,-88
2016-08-17T06:48:39.033Z,-87
2016-08-17T06:49:39.189Z,-88
2016-08-17T06:50:39.301Z,-88
2016-08-17T06:51:39.237Z,-87
2016-08-17T06:52:39.204Z,-88
2016-08-17T06:53:39.254Z,-88
2016-08-17T06:54:39.220Z,-88
2016-08-17T06:55:39.496Z,-87
2016-08-17T06:56:39.049Z,-87
2016-08-17T06:57:39.202Z,-88
2016-08-17T06:58:39.143Z,-88
2016-08-17T06:59:39.352Z,-88
2016-08-17T07:00:39.315Z,-88
2016-08-17T07:01:39.323Z,-88
2016-08-17T07:02:39.236Z,-88
2016-08-17T07:03:39.306Z,-88
2016-08-17T07:04:39.639Z,-87
2016-08-17T07:05:39.126Z,-88
2016-08-17T07:06:39.212Z,-87
2016-08-17T07:07:39.415Z,-87
2016-08-17T07:08:39.144Z,-88
2016-08-17T07:09:39.978Z,-88
2016-08-17T07:10:39.240Z,-87
2016-08-17T07:11:39.995Z,-88
2016-08-17T07:12:39.345Z,-88
2016-08-17T07:13:39.449Z,-88
2016-08-17T07:14:39.289Z,-87
2016-08-17T07:15:40.242Z,-88
2016-08-17T07:16:39.418Z,-81
2016-08-17T07:17:39.338Z,-81
2016-08-17T07:18:39.488Z,-81
2016-08-17T07:19:39.853Z,-81
2016-08-17T07:20:39.247Z,-81
2016-08-17T07:21:41.310Z,-80
2016-08-17T07:22:39.781Z,-81
2016-08-17T07:23:39.518Z,-81
2016-08-17T07:24:39.873Z,-81
2016-08-17T07:25:39.451Z,-81
2016-08-17T07:26:39.451Z,-81
2016-08-17T07:27:39.499Z,-82
2016-08-17T07:28:40.589Z,-81
2016-08-17T07:29:40.628Z,-82
2016-08-17T07:30:39.732Z,-82
2016-08-17T07:31:39.770Z,-82
2016-08-17T07:32:39.616Z,-82
2016-08-17T07:33:39.261Z,-81
2016-08-17T07:34:40.581Z,-82
2016-08-17T07:35:39.439Z,-81
2016-08-17T07:36:39.249Z,-81
2016-08-17T07:37:39.531Z,-81
2016-08-17T07:38:39.533Z,-87
2016-08-17T07:39:39.143Z,-88
2016-08-17T07:40:39.261Z,-87
2016-08-17T07:41:39.527Z,-87
2016-08-17T07:42:39.407Z,-87
2016-08-17T07:43:39.262Z,-87
2016-08-17T07:44:39.992Z,-89
2016-08-17T07:45:39.238Z,-91
2016-08-17T07:46:39.530Z,-89
2016-08-17T07:47:39.175Z,-90
2016-08-17T07:48:39.251Z,-90
2016-08-17T07:49:39.334Z,-88
2016-08-17T07:50:39.365Z,-89
2016-08-17T07:51:39.347Z,-95
2016-08-17T07:52:41.793Z,-96
2016-08-17T07:53:39.325Z,-96
2016-08-17T07:54:40.097Z,-96
2016-08-17T07:55:39.534Z,-96
2016-08-17T07:56:40.111Z,-96
2016-08-17T07:57:39.643Z,-96
2016-08-17T07:58:40.367Z,-96
2016-08-17T07:59:39.487Z,-91
2016-08-17T08:00:39.482Z,-96
2016-08-17T08:01:39.395Z,-96
2016-08-17T08:02:40.398Z,-96
2016-08-17T08:03:39.351Z,-96
2016-08-17T08:04:39.462Z,-96
2016-08-17T08:05:40.042Z,-96
2016-08-17T08:06:39.309Z,-96
2016-08-17T08:07:40.418Z,-96
2016-08-17T08:08:39.801Z,-96
2016-08-17T08:09:39.361Z,-96
2016-08-17T08:10:39.336Z,-95
2016-08-17T08:11:39.385Z,-96
2016-08-17T08:12:39.456Z,-95
2016-08-17T08:13:39.600Z,-96
2016-08-17T08:14:39.414Z,-96
2016-08-17T08:15:39.429Z,-96
2016-08-17T08:16:39.697Z,-96
2016-08-17T08:17:39.654Z,-95
2016-08-17T08:18:39.331Z,-95
2016-08-17T08:19:39.406Z,-95
2016-08-17T08:20:40.153Z,-95
2016-08-17T08:21:39.588Z,-95
2016-08-17T08:22:39.362Z,-95
2016-08-17T08:23:39.764Z,-96
2016-08-17T08:24:39.350Z,-96
2016-08-17T08:25:39.430Z,-96
2016-08-17T08:26:39.345Z,-96
2016-08-17T08:27:39.527Z,-96
2016-08-17T08:28:39.764Z,-96
2016-08-17T08:29:39.501Z,-96
2016-08-17T08:30:39.677Z,-96
2016-08-17T08:31:39.301Z,-96
2016-08-17T08:32:39.421Z,-95
2016-08-17T08:33:40.030Z,-96
2016-08-17T08:34:39.411Z,-96
2016-08-17T08:35:39.397Z,-95
2016-08-17T08:36:39.530Z,-95
2016-08-17T08:37:39.557Z,-96
2016-08-17T08:38:39.629Z,-96
2016-08-17T08:39:39.448Z,-96
2016-08-17T08:40:39.490Z,-94
2016-08-17T08:41:39.404Z,-96
2016-08-17T08:42:39.534Z,-96
2016-08-17T08:43:39.595Z,-95
2016-08-17T08:44:39.938Z,-95
2016-08-17T08:45:39.563Z,-96
2016-08-17T08:46:39.464Z,-94
2016-08-17T08:47:39.633Z,-93
2016-08-17T08:48:39.535Z,-94
2016-08-17T08:49:39.555Z,-94
2016-08-17T08:50:39.483Z,-95
2016-08-17T08:51:39.596Z,-94
2016-08-17T08:52:39.638Z,-95
2016-08-17T08:53:39.679Z,-96
2016-08-17T08:54:39.615Z,-94
2016-08-17T08:55:39.410Z,-94
2016-08-17T08:56:39.461Z,-93
2016-08-17T08:57:39.452Z,-95
2016-08-17T08:58:39.667Z,-94
2016-08-17T08:59:39.514Z,-93
2016-08-17T09:00:39.970Z,-94
2016-08-17T09:01:39.595Z,-93
2016-08-17T09:02:39.484Z,-92
2016-08-17T09:03:39.503Z,-93
2016-08-17T09:04:39.338Z,-93
2016-08-17T09:05:39.477Z,-93
2016-08-17T09:06:39.499Z,-94
2016-08-17T09:07:39.392Z,-93
2016-08-17T09:08:39.579Z,-93
2016-08-17T09:09:39.560Z,-93
2016-08-17T09:10:39.487Z,-93
2016-08-17T09:11:39.572Z,-91
2016-08-17T09:12:39.598Z,-96
2016-08-17T09:13:39.590Z,-94
2016-08-17T09:14:39.539Z,-93
2016-08-17T09:15:39.562Z,-92
2016-08-17T09:16:39.512Z,-95
2016-08-17T09:17:39.484Z,-93
2016-08-17T09:18:39.557Z,-94
2016-08-17T09:19:39.591Z,-93
2016-08-17T09:20:39.660Z,-93
2016-08-17T09:21:39.570Z,-94
2016-08-17T09:22:39.747Z,-93
2016-08-17T09:23:39.645Z,-91
2016-08-17T09:24:39.550Z,-93
2016-08-17T09:25:39.577Z,-93
2016-08-17T09:26:39.581Z,-94
2016-08-17T09:27:40.095Z,-94
2016-08-17T09:28:39.504Z,-93
2016-08-17T09:29:39.674Z,-93
2016-08-17T09:30:39.613Z,-93
2016-08-17T09:31:39.479Z,-93
2016-08-17T09:32:39.494Z,-91
2016-08-17T09:33:39.575Z,-93
2016-08-17T09:34:40.217Z,-92
2016-08-17T09:35:40.305Z,-92
2016-08-17T09:36:42.753Z,-91
2016-08-17T09:37:40.445Z,-91
2016-08-17T09:38:39.626Z,-92
2016-08-17T09:39:39.571Z,-93
2016-08-17T09:40:39.673Z,-91
2016-08-17T09:41:39.582Z,-94
2016-08-17T09:42:39.659Z,-93
2016-08-17T09:43:39.724Z,-92
2016-08-17T09:44:39.804Z,-93
2016-08-17T09:45:39.636Z,-94
2016-08-17T09:46:39.569Z,-95
2016-08-17T09:47:39.644Z,-94
2016-08-17T09:48:39.690Z,-93
2016-08-17T09:49:39.720Z,-92
2016-08-17T09:50:39.850Z,-92
2016-08-17T09:51:39.643Z,-92
2016-08-17T09:52:39.722Z,-93
2016-08-17T09:53:40.789Z,-92
2016-08-17T09:54:39.589Z,-93
2016-08-17T09:55:39.955Z,-92
2016-08-17T09:56:39.533Z,-92
2016-08-17T09:57:39.604Z,-93
2016-08-17T09:58:39.599Z,-93
2016-08-17T09:59:39.706Z,-93
2016-08-17T10:00:39.809Z,-91
2016-08-17T10:01:39.536Z,-90
2016-08-17T10:02:39.645Z,-91
2016-08-17T10:03:39.897Z,-90
2016-08-17T10:04:39.683Z,-90
2016-08-17T10:05:39.619Z,-91
2016-08-17T10:06:39.900Z,-91
2016-08-17T10:07:39.827Z,-91
2016-08-17T10:08:39.904Z,-89
2016-08-17T10:09:39.693Z,-91
2016-08-17T10:10:39.668Z,-91
2016-08-17T10:11:39.650Z,-91
2016-08-17T10:12:39.854Z,-90
2016-08-17T10:13:39.833Z,-89
2016-08-17T10:14:39.704Z,-91
2016-08-17T10:15:39.678Z,-91
2016-08-17T10:16:39.657Z,-90
2016-08-17T10:17:39.774Z,-91
2016-08-17T10:18:39.581Z,-90
2016-08-17T10:19:39.764Z,-90
2016-08-17T10:20:39.881Z,-89
2016-08-17T10:21:39.827Z,-89
2016-08-17T10:22:39.730Z,-88
2016-08-17T10:23:39.778Z,-94
2016-08-17T10:24:39.719Z,-95
2016-08-17T10:25:39.758Z,-94
2016-08-17T10:26:39.732Z,-95
2016-08-17T10:27:39.720Z,-94
2016-08-17T10:28:39.721Z,-93
2016-08-17T10:29:39.846Z,-95
2016-08-17T10:30:39.681Z,-95
2016-08-17T10:31:43.059Z,-95
2016-08-17T10:32:39.701Z,-94
2016-08-17T10:33:39.628Z,-96
2016-08-17T10:34:40.231Z,-89
2016-08-17T10:35:39.797Z,-96
2016-08-17T10:38:48.193Z,-96
2016-08-17T10:39:40.469Z,-93
2016-08-17T10:40:40.646Z,-96
2016-08-17T10:41:40.571Z,-95
2016-08-17T10:42:42.795Z,-95
2016-08-17T10:43:41.705Z,-96
2016-08-17T10:44:41.850Z,-96
2016-08-17T10:45:42.423Z,-87
2016-08-17T10:47:46.440Z,-89
2016-08-17T10:48:41.202Z,-93
2016-08-17T10:49:40.475Z,-96
2016-08-17T10:50:41.646Z,-93
2016-08-17T10:51:43.177Z,-93
2016-08-17T10:52:39.876Z,-94
2016-08-17T10:53:39.751Z,-93
2016-08-17T10:54:39.844Z,-95
2016-08-17T10:55:39.762Z,-90
2016-08-17T10:56:39.836Z,-94
2016-08-17T10:57:40.401Z,-91
2016-08-17T10:58:39.939Z,-96
2016-08-17T10:59:39.862Z,-91
2016-08-17T11:00:39.994Z,-92
2016-08-17T11:01:40.087Z,-94
2016-08-17T11:02:39.868Z,-93
2016-08-17T11:03:39.791Z,-93
2016-08-17T11:04:39.803Z,-94
2016-08-17T11:05:39.936Z,-96
2016-08-17T11:06:39.888Z,-92
2016-08-17T11:07:40.605Z,-91
2016-08-17T11:08:39.883Z,-89
2016-08-17T11:09:40.015Z,-91
2016-08-17T11:10:39.914Z,-93
2016-08-17T11:11:39.885Z,-92
2016-08-17T11:12:39.838Z,-94
2016-08-17T11:13:39.847Z,-95
2016-08-17T11:14:44.308Z,-95
2016-08-17T11:15:39.809Z,-93
2016-08-17T11:16:39.881Z,-91
2016-08-17T11:17:39.886Z,-91
2016-08-17T11:18:39.991Z,-91
2016-08-17T11:19:39.976Z,-91
2016-08-17T11:20:40.024Z,-94
2016-08-17T11:21:39.799Z,-95
2016-08-17T11:22:40.068Z,-90
2016-08-17T11:23:39.876Z,-89
2016-08-17T11:24:39.833Z,-94
2016-08-17T11:25:39.937Z,-94
2016-08-17T11:26:40.001Z,-93
2016-08-17T11:27:39.948Z,-96
2016-08-17T11:28:39.861Z,-92
2016-08-17T11:29:39.890Z,-95
2016-08-17T11:30:40.049Z,-95
2016-08-17T11:31:41.131Z,-96
2016-08-17T11:34:47.634Z,-94
2016-08-17T11:34:54.535Z,-94
2016-08-17T11:35:54.543Z,-95
2016-08-17T11:36:54.498Z,-96
2016-08-17T11:37:54.622Z,-95
2016-08-17T11:38:54.662Z,-95
2016-08-17T11:39:54.648Z,-94
2016-08-17T11:40:54.477Z,-92
2016-08-17T11:41:54.615Z,-95
2016-08-17T11:42:54.580Z,-93
2016-08-17T11:43:54.738Z,-93
2016-08-17T11:44:54.635Z,-95
2016-08-17T11:45:54.564Z,-95
2016-08-17T11:46:54.968Z,-93
2016-08-17T11:47:54.565Z,-94
2016-08-17T11:49:14.494Z,-90
2016-08-17T11:49:54.564Z,-93
2016-08-17T11:50:54.724Z,-95
2016-08-17T11:51:54.636Z,-94
2016-08-17T11:52:54.614Z,-96
2016-08-17T11:53:54.608Z,-90
2016-08-17T11:54:54.736Z,-94
2016-08-17T11:55:54.599Z,-95
2016-08-17T11:56:54.714Z,-94
2016-08-17T11:57:54.660Z,-96
2016-08-17T11:58:54.780Z,-96
2016-08-17T11:59:54.589Z,-96
2016-08-17T12:00:54.616Z,-93
2016-08-17T12:01:54.679Z,-94
2016-08-17T12:02:54.787Z,-95
2016-08-17T12:03:54.892Z,-90
2016-08-17T12:04:54.653Z,-94
2016-08-17T12:05:54.645Z,-92
2016-08-17T12:06:54.678Z,-91
2016-08-17T12:07:54.607Z,-92
2016-08-17T12:08:54.804Z,-92
2016-08-17T12:09:54.733Z,-92
2016-08-17T12:10:54.719Z,-92
2016-08-17T12:11:54.781Z,-91
2016-08-17T12:12:54.793Z,-91
2016-08-17T12:13:54.570Z,-90
2016-08-17T12:14:54.736Z,-96
2016-08-17T12:15:54.717Z,-96
2016-08-17T12:16:54.857Z,-95
2016-08-17T12:17:54.893Z,-95
2016-08-17T12:18:54.915Z,-94
2016-08-17T12:19:55.583Z,-95
2016-08-17T12:20:56.640Z,-93
2016-08-17T12:21:55.041Z,-87
2016-08-17T12:22:54.662Z,-88
2016-08-17T12:23:54.714Z,-87
2016-08-17T12:24:54.765Z,-88
2016-08-17T12:25:54.611Z,-87
2016-08-17T12:26:54.788Z,-88
2016-08-17T12:27:54.730Z,-88
2016-08-17T12:28:54.650Z,-88
2016-08-17T12:29:54.909Z,-84
2016-08-17T12:30:54.855Z,-84
2016-08-17T12:31:54.764Z,-84
2016-08-17T12:32:56.850Z,-84
2016-08-17T12:33:54.632Z,-84
2016-08-17T12:34:54.710Z,-84
2016-08-17T12:35:55.027Z,-84
2016-08-17T12:36:54.923Z,-85
2016-08-17T12:37:54.879Z,-84
2016-08-17T12:38:54.806Z,-85
2016-08-17T12:39:54.671Z,-84
2016-08-17T12:40:54.818Z,-85
2016-08-17T12:41:54.951Z,-85
2016-08-17T12:42:54.791Z,-85
2016-08-17T12:43:54.805Z,-85
2016-08-17T12:44:54.641Z,-85
2016-08-17T12:45:54.667Z,-85
2016-08-17T12:46:54.828Z,-84
2016-08-17T12:47:54.815Z,-85
2016-08-17T12:48:54.837Z,-84
2016-08-17T12:49:54.733Z,-84
2016-08-17T12:50:54.935Z,-85
2016-08-17T12:54:02.327Z,-84
2016-08-17T12:54:09.311Z,-84
2016-08-17T12:55:09.306Z,-84
2016-08-17T12:56:09.276Z,-84
2016-08-17T12:57:09.351Z,-84
2016-08-17T12:58:09.425Z,-84
2016-08-17T12:59:09.364Z,-85
2016-08-17T13:00:09.357Z,-85
2016-08-17T13:01:09.258Z,-85
2016-08-17T13:02:09.217Z,-87
2016-08-17T13:03:09.347Z,-84
2016-08-17T13:04:09.352Z,-85
2016-08-17T13:05:09.332Z,-84
2016-08-17T13:06:09.419Z,-84
2016-08-17T13:07:09.251Z,-84
2016-08-17T13:08:09.415Z,-84
2016-08-17T13:09:09.278Z,-84
2016-08-17T13:10:09.191Z,-84
2016-08-17T13:11:09.411Z,-84
2016-08-17T13:12:09.273Z,-84
2016-08-17T13:13:09.258Z,-84
2016-08-17T13:14:10.221Z,-84
2016-08-17T13:15:09.460Z,-84
2016-08-17T13:16:09.401Z,-84
2016-08-17T13:17:09.235Z,-85
2016-08-17T13:18:09.376Z,-84
2016-08-17T13:19:09.249Z,-85
2016-08-17T13:20:09.309Z,-84
2016-08-17T13:21:09.304Z,-84
2016-08-17T13:22:09.512Z,-84
2016-08-17T13:23:09.250Z,-84
2016-08-17T13:24:09.308Z,-84
2016-08-17T13:25:09.430Z,-83
2016-08-17T13:26:09.328Z,-84
2016-08-17T13:27:09.341Z,-83
2016-08-17T13:28:09.434Z,-83
2016-08-17T13:29:09.363Z,-84
2016-08-17T13:30:09.506Z,-84
2016-08-17T13:31:09.374Z,-85
2016-08-17T13:32:09.471Z,-83
2016-08-17T13:33:09.338Z,-84
2016-08-17T13:34:09.374Z,-84
2016-08-17T13:35:09.525Z,-83
2016-08-17T13:36:09.419Z,-83
2016-08-17T13:37:09.602Z,-84
2016-08-17T13:38:09.361Z,-84
2016-08-17T13:39:09.353Z,-84
2016-08-17T13:40:09.516Z,-83
2016-08-17T13:41:09.568Z,-83
2016-08-17T13:42:09.454Z,-83
2016-08-17T13:43:09.389Z,-84
2016-08-17T13:44:09.468Z,-83
2016-08-17T13:45:09.391Z,-83
2016-08-17T13:46:09.438Z,-83
2016-08-17T13:47:09.405Z,-83
2016-08-17T13:48:09.558Z,-84
2016-08-17T13:49:09.416Z,-84
2016-08-17T13:50:09.332Z,-84
2016-08-17T13:51:09.476Z,-83
2016-08-17T13:52:09.487Z,-83
2016-08-17T13:53:09.629Z,-83
2016-08-17T13:54:09.445Z,-83
2016-08-17T13:55:09.567Z,-84
2016-08-17T13:56:09.613Z,-83
2016-08-17T13:57:09.354Z,-83
2016-08-17T13:58:09.424Z,-83
2016-08-17T13:59:09.581Z,-83
2016-08-17T14:00:09.550Z,-83
2016-08-17T14:01:09.969Z,-84
2016-08-17T14:02:09.641Z,-82
2016-08-17T14:03:09.574Z,-83
2016-08-17T14:04:09.561Z,-83
2016-08-17T14:05:09.737Z,-83
2016-08-17T14:06:09.576Z,-82
2016-08-17T14:07:09.516Z,-83
2016-08-17T14:08:09.497Z,-83
2016-08-17T14:09:09.500Z,-83
2016-08-17T14:10:09.707Z,-83
2016-08-17T14:11:09.576Z,-83